Time;durP1;ratioP1;P1;durP2;ratioP2;P2;SDS_P1;SDS_P2;PMS_P1;PMS_P2;Temp;Humidity;BMP_temperature;BMP_pressure;BME280_temperature;BME280_humidity;BME280_pressure;Samples;Min_cycle;Max_cycle;Signal;HPM_P1;HPM_P2
2023/02/17 00:01:41;;;;;;;11.48;4.82;;;9.00;50.90;;;4.33;70.17;96544.78;5008490;28;20013;-53
2023/02/17 00:04:22;;;;;;;9.48;4.93;;;9.10;51.00;;;4.44;69.95;96545.97;4998190;28;20120;-52
2023/02/17 00:06:55;;;;;;;10.75;4.97;;;9.10;50.90;;;4.46;71.23;96551.88;4998082;28;20387;-52
2023/02/17 00:09:27;;;;;;;14.02;5.18;;;9.10;50.90;;;4.50;70.27;96545.19;5003118;28;20080;-52
2023/02/17 00:11:56;;;;;;;6.93;4.55;;;9.20;51.00;;;4.52;71.71;96537.88;4999162;28;20024;-54
2023/02/17 00:14:29;;;;;;;8.85;5.13;;;9.20;50.90;;;4.59;71.97;96541.31;4989517;28;20035;-52
2023/02/17 00:16:55;;;;;;;10.60;5.13;;;9.20;51.00;;;4.60;71.35;96547.41;5008572;28;20044;-54
2023/02/17 00:19:27;;;;;;;12.95;4.88;;;9.20;50.90;;;4.64;70.94;96549.47;4995888;28;20021;-54
2023/02/17 00:21:58;;;;;;;10.55;4.78;;;9.30;51.00;;;4.67;70.55;96550.88;5010315;28;20028;-53
2023/02/17 00:24:28;;;;;;;9.85;4.50;;;9.40;50.90;;;4.68;71.72;96549.84;4996912;28;20025;-53
2023/02/17 00:26:54;;;;;;;8.68;4.45;;;9.40;50.90;;;4.69;73.08;96553.31;5012513;28;20408;-56
2023/02/17 00:29:29;;;;;;;7.53;4.80;;;9.40;51.00;;;4.68;73.27;96560.41;5008006;28;20036;-50
2023/02/17 00:32:02;;;;;;;10.60;5.35;;;9.40;51.00;;;4.64;73.69;96551.28;5009175;28;20078;-50
2023/02/17 00:34:27;;;;;;;8.48;4.80;;;9.40;51.00;;;4.49;74.75;96554.13;4997167;28;20029;-55
2023/02/17 00:36:53;;;;;;;7.32;4.65;;;9.30;51.00;;;4.41;74.42;96549.03;5024753;28;20070;-51
2023/02/17 00:39:19;;;;;;;9.10;4.80;;;9.30;51.00;;;4.35;74.50;96561.19;5004446;28;20026;-53
2023/02/17 00:41:45;;;;;;;9.52;4.60;;;9.30;51.10;;;4.25;73.12;96558.13;5001657;28;20026;-52
2023/02/17 00:44:24;;;;;;;7.35;4.78;;;9.20;51.00;;;4.24;74.41;96561.81;5029281;28;20453;-53
2023/02/17 00:46:50;;;;;;;7.70;4.68;;;9.20;51.20;;;4.21;75.33;96559.56;5000218;28;20021;-55
2023/02/17 00:49:25;;;;;;;7.45;4.32;;;9.10;51.20;;;4.18;75.04;96567.88;5004181;28;20072;-53
2023/02/17 00:51:58;;;;;;;9.50;4.90;;;9.10;51.20;;;4.11;74.71;96559.94;5028831;28;20031;-56
2023/02/17 00:54:29;;;;;;;10.00;5.20;;;9.00;51.20;;;4.03;75.25;96560.13;5013230;28;20030;-53
2023/02/17 00:56:57;;;;;;;8.40;4.90;;;9.00;51.30;;;4.00;75.33;96568.44;5001118;28;20056;-51
2023/02/17 00:59:23;;;;;;;10.73;4.65;;;8.90;51.30;;;3.95;74.96;96568.22;5012451;28;20017;-55
2023/02/17 01:01:51;;;;;;;10.23;4.80;;;8.80;51.40;;;3.87;75.39;96565.75;5011529;28;20468;-56
2023/02/17 01:04:19;;;;;;;7.43;4.25;;;8.80;51.50;;;3.75;76.36;96565.50;5012468;28;20036;-53
2023/02/17 01:06:45;;;;;;;8.20;4.38;;;8.70;51.50;;;3.67;76.56;96565.72;5006530;28;20100;-55
2023/02/17 01:09:20;;;;;;;9.25;4.45;;;8.60;51.50;;;3.59;77.42;96571.94;5007086;28;20116;-51
2023/02/17 01:11:46;;;;;;;8.35;4.50;;;8.60;51.70;;;3.48;77.43;96575.16;5012180;28;20048;-56
2023/02/17 01:14:14;;;;;;;8.23;4.80;;;8.50;51.70;;;3.51;77.85;96572.13;4999996;28;20058;-52
2023/02/17 01:16:47;;;;;;;6.85;4.43;;;8.50;51.80;;;3.35;77.83;96562.69;5027850;28;20083;-54
2023/02/17 01:19:19;;;;;;;7.95;4.30;;;8.50;51.90;;;3.35;78.49;96570.59;5008829;28;20380;-51
2023/02/17 01:21:45;;;;;;;6.68;4.45;;;8.40;51.90;;;3.34;78.34;96568.97;5015288;28;20412;-53
2023/02/17 01:24:17;;;;;;;8.68;4.60;;;8.40;52.00;;;3.36;78.70;96572.25;5007759;28;20113;-56
2023/02/17 01:26:43;;;;;;;8.77;4.30;;;8.40;52.20;;;3.34;78.40;96570.81;5001028;28;20021;-53
2023/02/17 01:29:09;;;;;;;8.35;4.28;;;8.30;52.10;;;3.34;78.55;96576.88;5007224;28;20047;-57
2023/02/17 01:31:39;;;;;;;7.43;4.40;;;8.30;52.20;;;3.36;78.29;96569.63;5027902;28;20017;-56
2023/02/17 01:34:09;;;;;;;9.63;4.45;;;8.30;52.30;;;3.42;77.98;96568.84;5028100;28;20031;-52
2023/02/17 01:36:35;;;;;;;7.25;4.22;;;8.30;52.30;;;3.50;78.16;96577.56;5010598;28;20021;-56
2023/02/17 01:39:00;;;;;;;9.23;4.90;;;8.40;52.50;;;3.60;76.01;96570.13;5007725;28;20033;-54
2023/02/17 01:41:30;;;;;;;8.45;4.40;;;8.40;52.40;;;3.68;75.50;96570.75;4994998;28;20151;-55
2023/02/17 01:44:24;;;;;;;8.70;4.90;;;8.40;52.40;;;3.89;73.16;96563.75;5011403;28;20029;-51
2023/02/17 01:46:55;;;;;;;11.40;4.43;;;8.60;52.50;;;4.08;72.68;96572.72;5011393;28;20037;-55
2023/02/17 01:49:24;;;;;;;9.82;5.00;;;8.70;52.60;;;4.24;71.89;96555.72;4994223;28;20048;-56
2023/02/17 01:52:15;;;;;;;7.38;4.15;;;8.80;52.40;;;4.40;70.05;96555.31;5011358;28;20067;-56
2023/02/17 01:55:06;;;;;;;8.82;4.20;;;8.90;52.30;;;4.56;69.24;96562.03;4997742;28;20033;-55
2023/02/17 01:57:44;;;;;;;10.05;4.65;;;9.10;52.10;;;4.68;69.57;96552.50;5011826;28;20079;-53
2023/02/17 02:00:13;;;;;;;10.48;4.93;;;9.20;52.00;;;4.77;68.18;96547.84;5020422;28;20120;-54
2023/02/17 02:02:48;;;;;;;8.95;4.20;;;9.30;51.80;;;4.85;67.81;96543.13;5023486;28;20508;-54
2023/02/17 02:05:17;;;;;;;10.00;4.00;;;9.50;52.20;;;4.98;66.24;96547.59;5014747;28;20037;-55
2023/02/17 02:07:46;;;;;;;8.30;4.10;;;9.60;51.40;;;5.10;66.63;96540.66;5025699;28;20122;-53
2023/02/17 02:10:15;;;;;;;9.05;4.55;;;9.70;51.20;;;5.17;67.26;96534.53;4999632;28;20388;-56
2023/02/17 02:12:43;;;;;;;7.88;4.78;;;9.70;51.10;;;5.21;66.36;96531.31;4998949;28;20040;-58
2023/02/17 02:15:14;;;;;;;9.63;4.28;;;9.80;51.00;;;5.29;65.58;96536.34;5012625;28;20135;-58
2023/02/17 02:18:23;;;;;;;7.70;4.38;;;9.90;50.90;;;5.43;64.65;96531.84;5007924;28;20029;-56
2023/02/17 02:21:13;;;;;;;7.57;4.30;;;9.90;50.60;;;5.57;63.87;96535.22;4999093;28;20044;-54
2023/02/17 02:24:14;;;;;;;8.68;4.10;;;10.00;50.50;;;5.64;63.83;96537.84;5010368;28;20048;-58
2023/02/17 02:27:11;;;;;;;7.53;3.92;;;10.10;50.40;;;5.69;63.48;96536.22;5021089;28;20369;-56
2023/02/17 02:30:39;;;;;;;8.20;4.50;;;10.20;50.30;;;5.73;62.92;96532.09;5015514;28;20032;-56
2023/02/17 02:34:22;;;;;;;8.30;4.13;;;10.20;50.10;;;5.80;61.89;96534.75;4992012;28;20040;-52
2023/02/17 02:37:15;;;;;;;10.18;4.00;;;10.20;49.90;;;5.87;62.03;96532.06;4939466;28;20118;-52
2023/02/17 02:39:53;;;;;;;8.10;4.15;;;10.30;49.80;;;5.94;61.58;96532.88;5023136;28;20061;-53
2023/02/17 02:42:24;;;;;;;8.25;4.07;;;10.40;49.70;;;6.00;61.25;96524.09;5009420;28;20115;-56
2023/02/17 02:44:53;;;;;;;7.10;3.60;;;10.50;49.60;;;6.10;61.04;96519.13;4997210;28;20030;-56
2023/02/17 02:47:58;;;;;;;6.20;3.40;;;10.50;49.40;;;6.20;60.09;96518.66;5023704;28;20040;-56
2023/02/17 02:51:10;;;;;;;6.80;3.88;;;10.60;49.30;;;6.30;60.04;96519.03;5014529;23;20061;-54
2023/02/17 02:54:59;;;;;;;7.32;3.95;;;10.70;49.10;;;6.40;59.28;96522.00;4974039;28;20546;-52
2023/02/17 02:58:05;;;;;;;9.43;4.30;;;10.80;49.00;;;6.49;59.14;96518.06;4982208;28;20026;-48
2023/02/17 03:01:20;;;;;;;9.48;4.30;;;10.90;48.80;;;6.57;59.48;96519.63;4977784;28;20030;-51
2023/02/17 03:04:35;;;;;;;7.30;4.18;;;11.00;48.70;;;6.62;58.99;96519.78;4954231;28;20057;-51
2023/02/17 03:07:50;;;;;;;8.18;4.28;;;11.00;48.50;;;6.67;58.89;96517.28;4949703;28;20038;-50
2023/02/17 03:10:20;;;;;;;6.25;4.00;;;11.10;48.30;;;6.69;58.20;96520.53;4972764;28;20476;-48
2023/02/17 03:12:46;;;;;;;8.07;4.47;;;11.10;48.20;;;6.74;58.39;96525.19;4971797;28;20047;-49
2023/02/17 03:15:33;;;;;;;9.98;3.97;;;11.20;48.10;;;6.75;58.83;96518.88;4973444;28;20021;-48
2023/02/17 03:18:02;;;;;;;9.13;4.22;;;11.20;48.00;;;6.73;59.34;96516.41;4989701;28;20376;-48
2023/02/17 03:20:56;;;;;;;8.90;4.03;;;11.20;48.00;;;6.68;59.26;96518.91;4977512;28;20025;-48
2023/02/17 03:23:25;;;;;;;9.48;4.65;;;11.30;47.90;;;6.67;58.81;96525.22;4972970;28;20096;-51
2023/02/17 03:25:51;;;;;;;7.18;3.90;;;11.20;47.80;;;6.70;58.67;96521.34;4990395;28;20096;-52
2023/02/17 03:28:17;;;;;;;10.15;4.20;;;11.30;47.80;;;6.77;58.03;96513.34;4979155;28;20153;-49
2023/02/17 03:30:58;;;;;;;7.72;4.20;;;11.30;47.60;;;6.84;58.15;96519.41;4980453;28;20025;-48
2023/02/17 03:33:26;;;;;;;6.85;4.13;;;11.30;47.40;;;6.90;57.98;96518.53;4977281;28;20029;-49
2023/02/17 03:35:54;;;;;;;8.88;4.00;;;11.30;47.40;;;6.92;58.24;96519.09;4982214;28;20444;-52
2023/02/17 03:38:20;;;;;;;6.97;4.07;;;11.40;47.40;;;6.93;58.10;96516.25;4958349;28;20476;-48
2023/02/17 03:40:46;;;;;;;8.88;4.45;;;11.40;47.40;;;6.98;58.17;96515.59;4978737;28;20037;-49
2023/02/17 03:43:18;;;;;;;7.20;4.38;;;11.40;47.30;;;6.99;57.76;96519.88;4987357;28;20104;-51
2023/02/17 03:45:49;;;;;;;8.30;4.13;;;11.50;47.30;;;7.03;57.35;96507.81;4977076;28;20026;-48
2023/02/17 03:48:18;;;;;;;9.77;4.68;;;11.50;47.20;;;7.11;56.83;96515.47;4972772;28;20117;-54
2023/02/17 03:50:47;;;;;;;8.05;4.78;;;11.50;47.20;;;7.21;57.16;96517.63;4982290;28;20052;-51
2023/02/17 03:53:16;;;;;;;9.73;4.97;;;11.60;47.10;;;7.27;57.41;96515.91;4975886;28;20033;-51
2023/02/17 03:55:51;;;;;;;9.82;4.93;;;11.70;47.10;;;7.30;57.66;96518.94;4990176;28;20381;-49
2023/02/17 03:58:16;;;;;;;7.00;4.25;;;11.70;47.00;;;7.31;57.81;96525.84;4972874;28;20124;-54
2023/02/17 04:00:42;;;;;;;8.40;4.82;;;11.80;47.10;;;7.32;57.37;96524.00;4976476;28;20060;-50
2023/02/17 04:03:08;;;;;;;8.90;4.75;;;11.70;46.90;;;7.32;57.25;96522.16;4982212;28;20036;-49
2023/02/17 04:05:34;;;;;;;8.50;4.70;;;11.80;46.90;;;7.34;57.45;96529.91;4976137;28;20071;-48
2023/02/17 04:07:59;;;;;;;12.15;5.00;;;11.80;46.80;;;7.35;57.38;96521.72;4986412;28;20026;-48
2023/02/17 04:10:28;;;;;;;10.77;4.50;;;11.80;46.70;;;7.34;57.38;96525.41;4985609;28;20032;-52
2023/02/17 04:12:57;;;;;;;10.40;5.13;;;11.90;46.70;;;7.36;57.05;96519.88;4969415;28;20427;-48
2023/02/17 04:15:29;;;;;;;8.48;4.82;;;11.90;46.60;;;7.41;57.10;96528.00;4976611;28;20066;-50
2023/02/17 04:17:55;;;;;;;7.47;4.67;;;11.90;46.60;;;7.47;57.55;96528.94;4940592;28;20084;-51
2023/02/17 04:20:21;;;;;;;8.73;4.47;;;11.90;46.60;;;7.49;57.41;96526.88;4970852;28;20427;-51
2023/02/17 04:22:53;;;;;;;9.68;4.88;;;12.00;46.60;;;7.49;57.00;96535.66;4952195;28;20034;-49
2023/02/17 04:25:18;;;;;;;8.45;4.53;;;12.00;46.50;;;7.52;57.03;96537.03;4969980;28;20100;-53
2023/02/17 04:27:44;;;;;;;8.80;4.47;;;12.00;46.50;;;7.50;57.06;96541.75;4957664;28;20025;-54
2023/02/17 04:30:14;;;;;;;12.18;5.45;;;12.00;46.40;;;7.52;57.29;96540.50;4959243;28;20112;-49
2023/02/17 04:32:40;;;;;;;8.73;5.03;;;12.00;46.40;;;7.51;57.32;96532.78;4979272;28;20030;-50
2023/02/17 04:35:14;;;;;;;9.43;5.00;;;12.10;46.40;;;7.51;57.41;96536.22;4981533;28;20036;-48
2023/02/17 04:37:40;;;;;;;12.40;5.70;;;12.10;46.40;;;7.52;57.37;96537.88;4973128;28;20018;-49
2023/02/17 04:40:16;;;;;;;10.98;5.57;;;12.10;46.40;;;7.53;57.54;96538.66;4970999;28;20021;-48
2023/02/17 04:42:45;;;;;;;9.60;4.88;;;12.10;46.40;;;7.49;57.61;96540.97;4969761;28;20050;-48
2023/02/17 04:45:12;;;;;;;11.40;4.97;;;12.10;46.40;;;7.49;58.13;96540.97;4970476;28;20034;-49
2023/02/17 04:47:40;;;;;;;9.05;5.35;;;12.10;46.40;;;7.49;57.85;96540.13;4956025;28;20468;-53
2023/02/17 04:50:09;;;;;;;10.90;5.78;;;12.10;46.30;;;7.51;57.86;96538.06;4960513;28;20652;-52
2023/02/17 04:52:36;;;;;;;10.20;5.57;;;12.10;46.40;;;7.51;57.82;96538.88;4977311;28;20030;-53
2023/02/17 04:55:04;;;;;;;9.45;5.05;;;12.10;46.30;;;7.51;57.94;96538.88;4983341;28;20029;-53
2023/02/17 04:57:33;;;;;;;11.20;5.70;;;12.10;46.30;;;7.53;57.67;96533.38;4985664;28;20119;-51
2023/02/17 05:00:06;;;;;;;14.05;5.28;;;12.10;46.30;;;7.53;57.65;96536.81;4974823;28;20064;-50
2023/02/17 05:02:32;;;;;;;8.70;5.20;;;12.10;46.20;;;7.54;57.65;96535.78;4972573;28;20049;-49
2023/02/17 05:05:00;;;;;;;10.07;4.65;;;12.20;46.20;;;7.54;58.40;96540.28;4977693;28;20025;-54
2023/02/17 05:07:26;;;;;;;9.85;4.85;;;12.20;46.30;;;7.48;57.51;96539.31;4976305;28;20045;-48
2023/02/17 05:09:57;;;;;;;7.75;4.70;;;12.20;46.30;;;7.50;57.56;96539.91;4969367;28;20030;-51
2023/02/17 05:12:23;;;;;;;10.43;5.40;;;12.20;46.20;;;7.53;58.40;96534.19;4984977;28;20021;-54
2023/02/17 05:14:49;;;;;;;14.23;5.32;;;12.20;46.20;;;7.55;58.25;96536.59;4986746;28;20366;-48
2023/02/17 05:17:23;;;;;;;8.68;5.10;;;12.20;46.20;;;7.52;57.78;96537.88;4985516;28;20034;-52
2023/02/17 05:19:49;;;;;;;10.25;5.30;;;12.20;46.20;;;7.52;58.55;96537.88;4976774;28;20409;-48
2023/02/17 05:22:15;;;;;;;8.95;4.57;;;12.20;46.20;;;7.52;59.12;96532.56;4982972;28;20026;-53
2023/02/17 05:24:41;;;;;;;11.75;5.18;;;12.20;46.20;;;7.53;58.78;96528.06;4982330;28;20033;-49
2023/02/17 05:27:07;;;;;;;11.23;4.80;;;12.20;46.20;;;7.52;58.95;96524.59;4991747;28;20337;-50
2023/02/17 05:29:33;;;;;;;7.80;4.40;;;12.20;46.30;;;7.55;58.53;96526.81;4988708;28;20121;-50
2023/02/17 05:31:59;;;;;;;9.20;5.00;;;12.20;46.30;;;7.60;58.67;96526.13;4987733;28;20104;-48
2023/02/17 05:34:28;;;;;;;11.45;4.82;;;12.20;46.90;;;7.60;58.72;96516.34;4979687;28;20110;-48
2023/02/17 05:36:54;;;;;;;8.57;4.80;;;12.20;46.30;;;7.62;58.87;96522.25;4977381;28;20028;-48
2023/02/17 05:39:20;;;;;;;12.65;5.38;;;12.20;46.30;;;7.62;59.26;96516.94;4983601;28;20049;-53
2023/02/17 05:41:48;;;;;;;12.55;5.32;;;12.20;46.40;;;7.63;59.43;96517.75;4987537;28;20437;-48
2023/02/17 05:44:14;;;;;;;8.88;4.75;;;12.20;46.40;;;7.65;59.47;96521.78;5006332;28;20033;-49
2023/02/17 05:46:46;;;;;;;9.02;5.10;;;12.30;46.50;;;7.63;59.99;96517.75;4972477;28;20430;-48
2023/02/17 05:49:14;;;;;;;14.43;5.23;;;12.30;46.60;;;7.58;59.57;96522.88;5000900;28;20046;-48
2023/02/17 05:51:40;;;;;;;8.70;5.28;;;12.30;46.50;;;7.57;59.92;96530.03;4987360;28;20053;-53
2023/02/17 05:54:15;;;;;;;8.73;4.93;;;12.30;46.50;;;7.58;60.23;96528.19;4971326;28;20492;-52
2023/02/17 05:56:41;;;;;;;9.82;4.22;;;12.30;46.50;;;7.57;59.89;96521.28;4978931;28;20028;-50
2023/02/17 05:59:09;;;;;;;9.75;4.85;;;12.30;46.50;;;7.57;59.57;96526.56;4989303;28;20025;-52
2023/02/17 06:01:36;;;;;;;8.23;4.50;;;12.30;46.50;;;7.56;59.98;96528.44;4978189;28;20034;-48
2023/02/17 06:04:05;;;;;;;7.70;4.20;;;12.30;46.60;;;7.55;59.82;96525.97;4977855;28;20120;-50
2023/02/17 06:06:31;;;;;;;10.13;4.78;;;12.20;46.50;;;7.57;59.86;96527.38;4960468;28;20025;-52
2023/02/17 06:08:59;;;;;;;10.98;4.55;;;12.20;46.50;;;7.55;59.54;96521.50;4984559;28;20030;-52
2023/02/17 06:11:25;;;;;;;12.38;3.95;;;12.20;46.60;;;7.55;59.59;96524.16;4988264;28;20116;-54
2023/02/17 06:13:57;;;;;;;6.93;3.97;;;12.20;46.60;;;7.56;59.37;96524.97;4977575;28;20109;-49
2023/02/17 06:16:26;;;;;;;8.38;4.60;;;12.20;46.60;;;7.58;59.71;96530.84;4989794;28;20021;-53
2023/02/17 06:19:01;;;;;;;7.50;3.70;;;12.20;46.60;;;7.58;59.72;96530.84;4984674;28;20030;-52
2023/02/17 06:21:27;;;;;;;8.57;4.60;;;12.20;46.60;;;7.57;60.59;96534.53;4982869;28;20029;-49
2023/02/17 06:24:03;;;;;;;6.82;4.15;;;12.20;46.70;;;7.58;61.37;96534.31;4975159;28;20026;-48
2023/02/17 06:26:38;;;;;;;7.22;3.95;;;12.20;46.80;;;7.57;62.48;96532.69;4989601;28;20022;-49
2023/02/17 06:29:06;;;;;;;7.43;4.10;;;12.10;46.90;;;7.56;61.67;96538.22;4978972;28;20056;-51
2023/02/17 06:31:34;;;;;;;8.57;4.07;;;12.10;47.00;;;7.51;61.74;96533.56;4975976;28;20479;-51
2023/02/17 06:34:00;;;;;;;6.15;3.40;;;12.20;47.10;;;7.49;62.38;96543.59;4985236;28;20480;-48
2023/02/17 06:36:29;;;;;;;6.85;3.72;;;12.20;47.10;;;7.45;61.44;96534.47;4978063;28;20033;-48
2023/02/17 06:38:55;;;;;;;6.28;3.72;;;12.10;47.10;;;7.41;61.26;96538.59;4969548;28;20033;-48
2023/02/17 06:41:20;;;;;;;5.45;3.50;;;12.10;47.00;;;7.42;63.09;96542.84;4925016;28;21436;-51
2023/02/17 06:43:46;;;;;;;8.05;3.38;;;12.10;47.20;;;7.43;63.71;96552.44;4932878;28;20045;-48
2023/02/17 06:46:18;;;;;;;6.32;3.45;;;12.10;47.40;;;7.35;61.77;96548.22;4981334;28;20056;-53
2023/02/17 06:48:44;;;;;;;5.63;3.25;;;12.00;47.30;;;7.38;63.71;96557.59;4979700;28;20029;-51
2023/02/17 06:51:10;;;;;;;7.32;3.35;;;12.00;47.40;;;7.35;63.38;96556.19;4968173;28;20404;-49
2023/02/17 06:53:35;;;;;;;6.15;2.83;;;12.00;47.60;;;7.32;63.11;96564.56;4988046;28;20380;-52
2023/02/17 06:56:02;;;;;;;6.65;3.38;;;11.90;47.60;;;7.29;62.82;96561.56;4983440;28;20443;-48
2023/02/17 06:58:28;;;;;;;8.07;2.78;;;11.90;47.60;;;7.29;64.01;96570.31;4975618;28;20026;-52
2023/02/17 07:00:56;;;;;;;5.60;3.40;;;11.90;47.70;;;7.25;63.46;96569.13;4982080;28;20029;-49
2023/02/17 07:03:21;;;;;;;5.80;3.10;;;11.90;47.80;;;7.23;62.42;96571.19;4973483;28;20084;-48
2023/02/17 07:05:47;;;;;;;4.82;2.80;;;11.90;47.80;;;7.26;63.15;96575.25;4981146;28;20508;-51
2023/02/17 07:08:13;;;;;;;7.07;3.50;;;11.90;47.80;;;7.27;63.74;96568.91;4976351;28;20034;-51
2023/02/17 07:10:39;;;;;;;7.97;4.20;;;11.90;47.80;;;7.30;63.98;96581.72;4976642;28;20022;-48
2023/02/17 07:13:05;;;;;;;7.80;3.63;;;12.00;48.00;;;7.29;63.95;96578.25;4985391;28;20169;-49
2023/02/17 07:15:31;;;;;;;4.88;3.35;;;12.00;47.90;;;7.31;64.05;96580.72;4976781;28;20017;-47
2023/02/17 07:17:57;;;;;;;5.47;3.40;;;12.10;48.00;;;7.34;63.60;96589.03;4977549;28;20405;-48
2023/02/17 07:20:23;;;;;;;5.75;2.75;;;12.10;48.00;;;7.39;62.74;96583.84;4984674;28;20383;-49
2023/02/17 07:22:48;;;;;;;5.18;3.17;;;12.20;47.90;;;7.47;62.38;96585.44;4981682;28;20383;-52
2023/02/17 07:25:17;;;;;;;6.82;2.85;;;12.30;47.80;;;7.53;62.66;96589.03;4982971;28;20485;-50
2023/02/17 07:27:43;;;;;;;5.70;3.10;;;12.40;47.70;;;7.58;62.03;96587.34;4989512;28;20030;-48
2023/02/17 07:30:16;;;;;;;7.75;3.30;;;12.50;47.60;;;7.67;61.24;96590.50;4988060;28;20068;-49
2023/02/17 07:32:42;;;;;;;6.00;3.15;;;12.60;47.40;;;7.74;59.83;96588.59;4978756;28;20062;-48
2023/02/17 07:35:15;;;;;;;8.63;3.35;;;12.70;47.30;;;7.84;60.03;96590.75;4982181;28;20040;-48
2023/02/17 07:37:47;;;;;;;8.65;3.53;;;12.80;47.10;;;7.92;58.99;96586.97;4976992;28;20504;-50
2023/02/17 07:40:19;;;;;;;25.70;4.43;;;12.90;46.90;;;7.97;58.51;96593.22;4965347;28;20132;-49
2023/02/17 07:42:45;;;;;;;5.65;2.83;;;13.00;46.80;;;8.03;57.66;96596.84;4969541;28;20050;-48
2023/02/17 07:45:13;;;;;;;5.28;2.92;;;13.00;46.50;;;8.11;58.29;96589.34;4982773;28;20042;-50
2023/02/17 07:47:39;;;;;;;5.18;2.85;;;13.10;46.40;;;8.19;57.84;96592.75;4980167;28;20019;-48
2023/02/17 07:50:09;;;;;;;8.02;4.10;;;13.20;46.30;;;8.24;57.73;96596.34;4989017;28;20045;-53
2023/02/17 07:52:38;;;;;;;6.70;3.15;;;13.20;46.10;;;8.35;57.81;96586.81;4987647;28;20022;-51
2023/02/17 07:55:09;;;;;;;5.47;3.03;;;13.30;46.10;;;8.39;56.71;96593.31;4981899;28;20095;-53
2023/02/17 07:57:38;;;;;;;5.40;3.10;;;13.40;45.90;;;8.41;56.43;96591.25;4987971;28;20033;-50
2023/02/17 08:00:05;;;;;;;6.82;3.30;;;13.40;45.70;;;8.50;56.61;96595.19;4972858;28;20025;-49
2023/02/17 08:02:31;;;;;;;8.32;3.45;;;13.50;45.60;;;8.59;56.97;96598.34;4981275;28;20388;-52
2023/02/17 08:04:57;;;;;;;6.07;2.95;;;13.50;45.60;;;8.62;55.80;96597.06;4986636;28;20030;-51
2023/02/17 08:07:23;;;;;;;5.20;2.97;;;13.60;45.50;;;8.73;56.96;96594.44;4979269;28;20018;-48
2023/02/17 08:15:18;;;;;;;9.95;3.53;;;13.80;45.30;;;8.92;55.57;96603.13;4973939;28;20397;-50
2023/02/17 08:17:47;;;;;;;11.00;4.30;;;13.90;45.20;;;9.01;55.98;96603.63;4975869;28;20014;-48
2023/02/17 08:20:18;;;;;;;23.35;4.57;;;14.00;45.00;;;9.16;55.17;96609.31;4986334;28;20357;-49
2023/02/17 08:22:47;;;;;;;9.77;3.53;;;14.10;44.90;;;9.27;55.34;96605.00;4978107;28;20108;-51
2023/02/17 08:25:13;;;;;;;8.45;3.95;;;14.20;44.80;;;9.35;54.67;96617.97;4972904;28;20160;-51
2023/02/17 08:27:42;;;;;;;7.45;3.88;;;14.30;44.80;;;9.43;53.96;96617.63;4989565;28;20050;-54
2023/02/17 08:30:10;;;;;;;13.68;5.20;;;14.30;44.60;;;9.39;53.20;96623.63;4986748;28;20088;-49
2023/02/17 08:32:37;;;;;;;12.45;4.18;;;14.40;44.40;;;9.50;54.00;96622.84;4977382;28;20033;-51
2023/02/17 08:35:05;;;;;;;9.82;3.65;;;14.40;44.30;;;9.47;53.32;96626.75;4980601;28;20042;-50
2023/02/17 08:37:31;;;;;;;7.18;3.53;;;14.50;44.10;;;9.54;53.58;96618.66;4995205;28;20025;-48
2023/02/17 08:39:58;;;;;;;8.68;3.72;;;14.60;43.90;;;9.66;53.19;96624.78;4988996;28;20029;-51
2023/02/17 08:42:27;;;;;;;7.93;3.80;;;14.70;43.80;;;9.75;53.08;96624.44;4976748;28;20033;-48
2023/02/17 08:44:54;;;;;;;7.88;3.60;;;14.80;43.70;;;9.79;52.13;96628.25;4973724;28;20030;-49
2023/02/17 08:47:26;;;;;;;8.10;4.07;;;15.00;43.50;;;9.91;52.58;96629.03;4987452;28;20026;-51
2023/02/17 08:49:52;;;;;;;16.85;3.45;;;15.10;43.80;;;9.96;52.24;96637.09;4983650;28;20030;-49
2023/02/17 08:52:18;;;;;;;7.55;3.80;;;15.10;43.20;;;10.03;52.12;96640.47;4979576;28;20063;-49
2023/02/17 08:54:44;;;;;;;8.82;3.70;;;15.20;43.00;;;10.07;51.99;96638.16;4986598;28;20320;-48
2023/02/17 08:57:13;;;;;;;10.98;3.80;;;15.30;42.80;;;10.18;52.67;96648.78;4987074;28;20117;-49
2023/02/17 08:59:41;;;;;;;13.07;4.20;;;15.40;42.70;;;10.28;52.43;96648.19;4988767;28;20045;-48
2023/02/17 09:02:09;;;;;;;8.05;3.75;;;15.50;42.70;;;10.35;51.71;96646.19;4972891;28;20035;-48
2023/02/17 09:04:35;;;;;;;11.05;4.15;;;15.60;42.50;;;10.37;51.32;96649.44;4971169;28;20034;-51
2023/02/17 09:07:01;;;;;;;7.45;3.72;;;15.80;42.30;;;10.49;50.96;96652.03;4979245;28;20044;-48
2023/02/17 09:09:27;;;;;;;8.57;3.40;;;15.90;42.10;;;10.56;50.52;96658.06;4990593;28;20032;-51
2023/02/17 09:11:57;;;;;;;8.85;3.55;;;16.10;42.00;;;10.62;50.37;96662.44;4989865;28;20040;-49
2023/02/17 09:14:24;;;;;;;10.65;3.92;;;16.20;41.70;;;10.79;50.45;96651.81;4991775;28;20033;-48
2023/02/17 09:16:59;;;;;;;8.05;3.88;;;16.40;41.70;;;10.97;50.46;96652.63;5000272;28;20116;-50
2023/02/17 09:19:30;;;;;;;7.53;4.13;;;16.50;41.40;;;11.15;50.28;96654.25;4990964;28;20022;-49
2023/02/17 09:21:56;;;;;;;6.00;3.78;;;16.70;41.40;;;11.33;49.35;96662.81;4978992;28;20036;-51
2023/02/17 09:24:22;;;;;;;6.38;4.50;;;16.80;41.30;;;11.32;49.64;96652.41;4989629;28;20033;-52
2023/02/17 09:26:48;;;;;;;7.28;4.10;;;16.90;41.10;;;11.35;48.96;96657.28;4979546;28;20026;-48
2023/02/17 09:29:17;;;;;;;7.57;3.90;;;17.00;40.80;;;11.53;49.80;96666.84;4990651;28;20052;-48
2023/02/17 09:31:44;;;;;;;7.97;4.25;;;17.00;40.70;;;11.40;48.54;96665.34;4994950;28;20473;-48
2023/02/17 09:34:10;;;;;;;7.90;4.13;;;17.00;40.50;;;11.39;48.71;96670.94;4981596;28;20053;-51
2023/02/17 09:36:40;;;;;;;7.90;4.75;;;17.00;40.40;;;11.43;49.12;96672.03;4984370;28;20026;-48
2023/02/17 09:39:08;;;;;;;9.95;5.05;;;17.00;40.30;;;11.49;48.91;96669.22;4988831;28;20120;-48
2023/02/17 09:41:52;;;;;;;10.93;4.93;;;17.00;40.30;;;11.46;48.05;96669.69;4972321;28;20108;-48
2023/02/17 09:44:42;;;;;;;11.27;4.78;;;17.00;40.10;;;11.50;47.83;96670.00;4975178;28;20413;-48
2023/02/17 09:47:24;;;;;;;10.50;5.30;;;17.00;40.00;;;11.51;47.95;96675.13;4987060;28;20121;-48
2023/02/17 09:50:13;;;;;;;11.10;5.37;;;17.00;40.00;;;11.53;48.40;96674.88;4989615;28;20531;-48
2023/02/17 09:53:08;;;;;;;9.55;5.47;;;17.10;40.00;;;11.65;48.29;96682.78;4989939;28;20330;-48
2023/02/17 09:55:45;;;;;;;12.02;5.60;;;17.10;39.90;;;11.62;47.67;96686.75;4983044;28;20022;-51
2023/02/17 09:58:54;;;;;;;9.63;5.20;;;17.20;39.80;;;11.69;47.76;96681.25;4982095;28;20527;-48
2023/02/17 10:01:30;;;;;;;8.00;5.10;;;17.20;39.60;;;11.76;47.49;96687.22;4983228;28;20080;-48
2023/02/17 10:04:20;;;;;;;71.43;14.90;;;17.30;39.50;;;11.82;47.72;96678.25;4988777;28;20115;-54
2023/02/17 10:07:08;;;;;;;13.23;6.28;;;17.30;39.40;;;11.98;47.84;96673.97;4966668;28;20048;-50
2023/02/17 10:09:48;;;;;;;11.57;5.38;;;17.50;39.30;;;12.04;47.40;96683.66;4973923;28;20053;-50
2023/02/17 10:12:32;;;;;;;9.95;5.68;;;17.60;39.20;;;12.00;47.37;96679.84;4984697;28;20052;-49
2023/02/17 10:15:16;;;;;;;13.35;5.18;;;17.70;39.00;;;11.93;47.99;96681.88;4992742;28;20026;-54
2023/02/17 10:18:17;;;;;;;14.50;5.40;;;17.70;38.90;;;11.98;48.42;96676.63;4977584;28;20030;-48
2023/02/17 10:21:22;;;;;;;12.75;4.43;;;17.80;38.80;;;12.01;48.65;96684.16;4987487;28;20036;-49
2023/02/17 10:23:52;;;;;;;9.48;5.10;;;18.00;38.70;;;12.23;49.06;96674.28;4980594;28;20055;-48
2023/02/17 10:27:03;;;;;;;8.80;4.97;;;18.10;38.60;;;12.52;48.23;96675.97;4987091;28;20060;-50
2023/02/17 10:30:18;;;;;;;10.52;5.60;;;18.30;38.70;;;12.66;48.37;96672.66;4976960;28;20028;-52
2023/02/17 10:33:17;;;;;;;10.50;4.88;;;18.40;38.70;;;12.59;48.77;96671.22;4970228;28;20504;-48
2023/02/17 10:36:22;;;;;;;10.05;5.25;;;18.50;38.40;;;12.79;47.65;96676.78;4972216;28;20025;-48
2023/02/17 10:39:52;;;;;;;10.82;6.22;;;18.80;38.30;;;13.19;46.82;96668.34;4985447;28;20036;-51
2023/02/17 10:42:35;;;;;;;12.93;5.38;;;19.20;38.30;;;13.42;47.29;96674.44;4951343;28;20042;-52
2023/02/17 10:45:34;;;;;;;;;;;19.60;37.90;;;14.11;45.94;96678.91;4967958;28;20034;-53
2023/02/17 10:48:34;;;;;;;11.98;5.30;;;20.30;38.00;;;14.47;45.73;96674.50;4973692;28;20601;-49
2023/02/17 10:51:01;;;;;;;10.57;5.20;;;21.00;37.20;;;14.58;45.89;96673.53;4980290;28;20045;-47
2023/02/17 10:53:38;;;;;;;7.50;4.57;;;21.20;36.90;;;14.68;45.03;96666.56;4984765;28;20022;-50
2023/02/17 10:56:24;;;;;;;9.27;4.78;;;21.20;36.50;;;14.40;45.55;96657.06;4984538;28;20487;-50
2023/02/17 10:59:21;;;;;;;9.52;4.43;;;21.10;35.90;;;14.40;45.57;96652.50;4980145;28;20414;-48